sensor_id;sensor_type;location;lat;lon;timestamp;pressure;altitude;pressure_sealevel;temperature;humidity
29839;BME280;18669;53.356;-1.464;2023-02-17T00:02:05;100444.69;;;12.79;100.00
29839;BME280;18669;53.356;-1.464;2023-02-17T00:04:32;100433.69;;;12.65;100.00
29839;BME280;18669;53.356;-1.464;2023-02-17T00:06:58;100440.75;;;12.64;100.00
29839;BME280;18669;53.356;-1.464;2023-02-17T00:09:24;100418.94;;;12.59;100.00
29839;BME280;18669;53.356;-1.464;2023-02-17T00:11:50;100428.66;;;12.84;100.00
29839;BME280;18669;53.356;-1.464;2023-02-17T00:14:17;100427.41;;;12.69;100.00
29839;BME280;18669;53.356;-1.464;2023-02-17T00:16:43;100429.03;;;12.73;100.00
29839;BME280;18669;53.356;-1.464;2023-02-17T00:19:11;100430.56;;;12.80;100.00
29839;BME280;18669;53.356;-1.464;2023-02-17T00:21:54;100427.09;;;12.78;100.00
29839;BME280;18669;53.356;-1.464;2023-02-17T00:24:21;100423.56;;;12.79;100.00
29839;BME280;18669;53.356;-1.464;2023-02-17T00:26:48;100414.84;;;12.76;100.00
29839;BME280;18669;53.356;-1.464;2023-02-17T00:29:15;100401.75;;;12.73;100.00
29839;BME280;18669;53.356;-1.464;2023-02-17T00:31:41;100405.09;;;12.78;100.00
29839;BME280;18669;53.356;-1.464;2023-02-17T00:34:07;100411.28;;;12.78;100.00
29839;BME280;18669;53.356;-1.464;2023-02-17T00:36:33;100405.44;;;12.94;100.00
29839;BME280;18669;53.356;-1.464;2023-02-17T00:38:59;100403.19;;;12.83;100.00
29839;BME280;18669;53.356;-1.464;2023-02-17T00:41:27;100402.34;;;12.82;100.00
29839;BME280;18669;53.356;-1.464;2023-02-17T00:43:53;100394.72;;;12.73;100.00
29839;BME280;18669;53.356;-1.464;2023-02-17T00:46:20;100404.19;;;12.79;100.00
29839;BME280;18669;53.356;-1.464;2023-02-17T00:48:47;100402.22;;;12.86;100.00
29839;BME280;18669;53.356;-1.464;2023-02-17T00:51:14;100401.34;;;12.85;100.00
29839;BME280;18669;53.356;-1.464;2023-02-17T00:53:41;100401.44;;;12.83;100.00
29839;BME280;18669;53.356;-1.464;2023-02-17T00:56:08;100408.44;;;12.85;100.00
29839;BME280;18669;53.356;-1.464;2023-02-17T00:58:34;100404.81;;;12.87;100.00
29839;BME280;18669;53.356;-1.464;2023-02-17T01:01:01;100405.78;;;12.85;100.00
29839;BME280;18669;53.356;-1.464;2023-02-17T01:03:27;100411.72;;;12.91;100.00
29839;BME280;18669;53.356;-1.464;2023-02-17T01:05:54;100401.78;;;12.98;100.00
29839;BME280;18669;53.356;-1.464;2023-02-17T01:08:21;100403.63;;;12.96;100.00
29839;BME280;18669;53.356;-1.464;2023-02-17T01:10:48;100402.47;;;13.05;100.00
29839;BME280;18669;53.356;-1.464;2023-02-17T01:13:16;100404.88;;;13.11;100.00
29839;BME280;18669;53.356;-1.464;2023-02-17T01:15:48;100394.16;;;13.16;100.00
29839;BME280;18669;53.356;-1.464;2023-02-17T01:18:15;100406.66;;;13.10;100.00
29839;BME280;18669;53.356;-1.464;2023-02-17T01:20:42;100397.22;;;13.03;100.00
29839;BME280;18669;53.356;-1.464;2023-02-17T01:23:08;100390.25;;;13.26;100.00
29839;BME280;18669;53.356;-1.464;2023-02-17T01:25:36;100370.00;;;13.01;100.00
29839;BME280;18669;53.356;-1.464;2023-02-17T01:28:02;100376.31;;;12.97;100.00
29839;BME280;18669;53.356;-1.464;2023-02-17T01:30:28;100379.72;;;13.01;100.00
29839;BME280;18669;53.356;-1.464;2023-02-17T01:32:54;100379.88;;;13.21;100.00
29839;BME280;18669;53.356;-1.464;2023-02-17T01:35:20;100373.28;;;13.08;100.00
29839;BME280;18669;53.356;-1.464;2023-02-17T01:37:46;100374.38;;;13.27;100.00
29839;BME280;18669;53.356;-1.464;2023-02-17T01:40:13;100376.81;;;13.08;100.00
29839;BME280;18669;53.356;-1.464;2023-02-17T01:42:39;100398.13;;;13.02;100.00
29839;BME280;18669;53.356;-1.464;2023-02-17T01:47:48;100384.41;;;13.18;100.00
29839;BME280;18669;53.356;-1.464;2023-02-17T01:50:16;100387.41;;;13.07;100.00
29839;BME280;18669;53.356;-1.464;2023-02-17T01:52:44;100384.94;;;13.02;100.00
29839;BME280;18669;53.356;-1.464;2023-02-17T01:55:15;100365.34;;;13.08;100.00
29839;BME280;18669;53.356;-1.464;2023-02-17T01:57:44;100367.31;;;13.03;100.00
29839;BME280;18669;53.356;-1.464;2023-02-17T02:00:12;100366.50;;;13.01;100.00
29839;BME280;18669;53.356;-1.464;2023-02-17T02:02:40;100364.59;;;13.06;100.00
29839;BME280;18669;53.356;-1.464;2023-02-17T02:05:09;100375.50;;;12.95;100.00
29839;BME280;18669;53.356;-1.464;2023-02-17T02:07:39;100384.09;;;13.02;100.00
29839;BME280;18669;53.356;-1.464;2023-02-17T02:10:07;100369.16;;;13.01;100.00
29839;BME280;18669;53.356;-1.464;2023-02-17T02:12:36;100366.50;;;13.01;100.00
29839;BME280;18669;53.356;-1.464;2023-02-17T02:15:06;100364.69;;;13.03;100.00
29839;BME280;18669;53.356;-1.464;2023-02-17T02:32:15;100352.44;;;13.00;100.00
29839;BME280;18669;53.356;-1.464;2023-02-17T02:34:48;100349.69;;;12.78;100.00
29839;BME280;18669;53.356;-1.464;2023-02-17T02:37:27;100338.63;;;12.92;100.00
29839;BME280;18669;53.356;-1.464;2023-02-17T02:40:00;100345.81;;;12.88;100.00
29839;BME280;18669;53.356;-1.464;2023-02-17T02:42:29;100332.91;;;12.79;100.00
29839;BME280;18669;53.356;-1.464;2023-02-17T02:44:55;100342.66;;;12.77;100.00
29839;BME280;18669;53.356;-1.464;2023-02-17T02:50:05;100340.94;;;12.76;100.00
29839;BME280;18669;53.356;-1.464;2023-02-17T02:55:50;100359.13;;;12.85;100.00
29839;BME280;18669;53.356;-1.464;2023-02-17T02:59:01;100357.22;;;12.63;100.00
29839;BME280;18669;53.356;-1.464;2023-02-17T03:01:29;100355.38;;;12.65;100.00
29839;BME280;18669;53.356;-1.464;2023-02-17T03:04:13;100332.56;;;12.64;100.00
29839;BME280;18669;53.356;-1.464;2023-02-17T03:06:48;100329.03;;;12.64;100.00
29839;BME280;18669;53.356;-1.464;2023-02-17T03:09:23;100322.13;;;12.60;100.00
29839;BME280;18669;53.356;-1.464;2023-02-17T03:11:52;100321.19;;;12.62;100.00
29839;BME280;18669;53.356;-1.464;2023-02-17T03:14:20;100330.13;;;12.58;100.00
29839;BME280;18669;53.356;-1.464;2023-02-17T03:16:47;100326.03;;;12.49;100.00
29839;BME280;18669;53.356;-1.464;2023-02-17T03:19:14;100317.03;;;12.55;100.00
29839;BME280;18669;53.356;-1.464;2023-02-17T03:24:23;100312.72;;;12.52;100.00
29839;BME280;18669;53.356;-1.464;2023-02-17T03:26:49;100311.34;;;12.41;100.00
29839;BME280;18669;53.356;-1.464;2023-02-17T03:29:15;100286.06;;;12.60;100.00
29839;BME280;18669;53.356;-1.464;2023-02-17T03:31:41;100289.06;;;12.49;100.00
29839;BME280;18669;53.356;-1.464;2023-02-17T03:34:07;100284.13;;;12.65;100.00
29839;BME280;18669;53.356;-1.464;2023-02-17T03:36:33;100268.09;;;12.45;100.00
29839;BME280;18669;53.356;-1.464;2023-02-17T03:38:59;100269.34;;;12.60;100.00
29839;BME280;18669;53.356;-1.464;2023-02-17T03:41:25;100268.91;;;12.47;100.00
29839;BME280;18669;53.356;-1.464;2023-02-17T03:43:51;100270.53;;;12.51;100.00
29839;BME280;18669;53.356;-1.464;2023-02-17T03:46:17;100273.69;;;12.62;100.00
29839;BME280;18669;53.356;-1.464;2023-02-17T03:48:43;100262.94;;;12.67;100.00
29839;BME280;18669;53.356;-1.464;2023-02-17T03:51:15;100277.06;;;12.66;100.00
29839;BME280;18669;53.356;-1.464;2023-02-17T03:53:41;100253.53;;;12.60;100.00
29839;BME280;18669;53.356;-1.464;2023-02-17T03:56:07;100245.59;;;12.60;100.00
29839;BME280;18669;53.356;-1.464;2023-02-17T03:58:33;100237.66;;;12.61;100.00
29839;BME280;18669;53.356;-1.464;2023-02-17T04:00:59;100231.50;;;12.61;100.00
29839;BME280;18669;53.356;-1.464;2023-02-17T04:03:25;100241.50;;;12.51;100.00
29839;BME280;18669;53.356;-1.464;2023-02-17T04:05:50;100235.63;;;12.43;100.00
29839;BME280;18669;53.356;-1.464;2023-02-17T04:08:16;100231.06;;;12.48;100.00
29839;BME280;18669;53.356;-1.464;2023-02-17T04:10:42;100216.97;;;12.49;100.00
29839;BME280;18669;53.356;-1.464;2023-02-17T04:13:09;100234.25;;;12.58;100.00
29839;BME280;18669;53.356;-1.464;2023-02-17T04:15:35;100223.84;;;12.53;100.00
29839;BME280;18669;53.356;-1.464;2023-02-17T04:18:01;100231.84;;;12.51;100.00
29839;BME280;18669;53.356;-1.464;2023-02-17T04:20:26;100252.16;;;12.48;100.00
29839;BME280;18669;53.356;-1.464;2023-02-17T04:22:52;100238.50;;;12.62;100.00
29839;BME280;18669;53.356;-1.464;2023-02-17T04:25:18;100233.19;;;12.63;100.00
29839;BME280;18669;53.356;-1.464;2023-02-17T04:27:44;100235.00;;;12.61;100.00
29839;BME280;18669;53.356;-1.464;2023-02-17T04:30:09;100225.28;;;12.62;100.00
29839;BME280;18669;53.356;-1.464;2023-02-17T04:32:35;100224.44;;;12.61;100.00
29839;BME280;18669;53.356;-1.464;2023-02-17T04:35:01;100232.38;;;12.61;100.00
29839;BME280;18669;53.356;-1.464;2023-02-17T04:37:27;100231.09;;;12.72;100.00
29839;BME280;18669;53.356;-1.464;2023-02-17T04:39:52;100230.44;;;12.66;100.00
29839;BME280;18669;53.356;-1.464;2023-02-17T04:42:18;100230.03;;;12.77;100.00
29839;BME280;18669;53.356;-1.464;2023-02-17T04:44:44;100244.97;;;12.78;100.00
29839;BME280;18669;53.356;-1.464;2023-02-17T04:47:11;100237.09;;;12.77;100.00
29839;BME280;18669;53.356;-1.464;2023-02-17T04:49:37;100226.53;;;12.77;100.00
29839;BME280;18669;53.356;-1.464;2023-02-17T04:52:02;100235.13;;;12.82;100.00
29839;BME280;18669;53.356;-1.464;2023-02-17T04:54:28;100224.69;;;12.79;100.00
29839;BME280;18669;53.356;-1.464;2023-02-17T04:56:54;100225.81;;;12.72;100.00
29839;BME280;18669;53.356;-1.464;2023-02-17T04:59:20;100210.66;;;12.78;100.00
29839;BME280;18669;53.356;-1.464;2023-02-17T05:01:46;100210.97;;;12.93;100.00
29839;BME280;18669;53.356;-1.464;2023-02-17T05:04:11;100203.81;;;12.96;100.00
29839;BME280;18669;53.356;-1.464;2023-02-17T05:06:37;100202.00;;;12.98;100.00
29839;BME280;18669;53.356;-1.464;2023-02-17T05:09:03;100188.31;;;12.87;100.00
29839;BME280;18669;53.356;-1.464;2023-02-17T05:11:28;100182.84;;;12.92;100.00
29839;BME280;18669;53.356;-1.464;2023-02-17T05:13:56;100184.66;;;12.91;100.00
29839;BME280;18669;53.356;-1.464;2023-02-17T05:16:21;100184.84;;;12.87;100.00
29839;BME280;18669;53.356;-1.464;2023-02-17T05:18:47;100184.47;;;12.96;100.00
29839;BME280;18669;53.356;-1.464;2023-02-17T05:21:13;100180.06;;;12.96;100.00
29839;BME280;18669;53.356;-1.464;2023-02-17T05:23:38;100182.19;;;12.87;100.00
29839;BME280;18669;53.356;-1.464;2023-02-17T05:26:08;100193.38;;;12.93;100.00
29839;BME280;18669;53.356;-1.464;2023-02-17T05:28:35;100193.31;;;12.95;100.00
29839;BME280;18669;53.356;-1.464;2023-02-17T05:31:01;100200.19;;;12.99;100.00
29839;BME280;18669;53.356;-1.464;2023-02-17T05:33:26;100199.06;;;13.06;100.00
29839;BME280;18669;53.356;-1.464;2023-02-17T05:35:52;100209.91;;;12.98;100.00
29839;BME280;18669;53.356;-1.464;2023-02-17T05:38:18;100212.31;;;13.05;100.00
29839;BME280;18669;53.356;-1.464;2023-02-17T05:40:44;100229.00;;;13.05;100.00
29839;BME280;18669;53.356;-1.464;2023-02-17T05:43:10;100224.75;;;13.01;100.00
29839;BME280;18669;53.356;-1.464;2023-02-17T05:45:35;100225.53;;;13.05;100.00
29839;BME280;18669;53.356;-1.464;2023-02-17T05:48:01;100237.81;;;13.06;100.00
29839;BME280;18669;53.356;-1.464;2023-02-17T05:50:27;100236.75;;;13.10;100.00
29839;BME280;18669;53.356;-1.464;2023-02-17T05:52:53;100242.28;;;13.04;100.00
29839;BME280;18669;53.356;-1.464;2023-02-17T05:55:18;100229.72;;;13.10;100.00
29839;BME280;18669;53.356;-1.464;2023-02-17T05:57:44;100227.81;;;13.14;100.00
29839;BME280;18669;53.356;-1.464;2023-02-17T06:00:10;100243.84;;;13.09;100.00
29839;BME280;18669;53.356;-1.464;2023-02-17T06:02:36;100233.84;;;13.18;100.00
29839;BME280;18669;53.356;-1.464;2023-02-17T06:05:02;100246.06;;;13.20;100.00
29839;BME280;18669;53.356;-1.464;2023-02-17T06:07:27;100240.78;;;13.20;100.00
29839;BME280;18669;53.356;-1.464;2023-02-17T06:09:53;100232.28;;;13.12;100.00
29839;BME280;18669;53.356;-1.464;2023-02-17T06:12:19;100246.69;;;13.27;100.00
29839;BME280;18669;53.356;-1.464;2023-02-17T06:14:44;100241.34;;;13.28;100.00
29839;BME280;18669;53.356;-1.464;2023-02-17T06:17:10;100238.72;;;13.28;100.00
29839;BME280;18669;53.356;-1.464;2023-02-17T06:19:36;100215.91;;;13.26;100.00
29839;BME280;18669;53.356;-1.464;2023-02-17T06:22:02;100240.31;;;13.33;100.00
29839;BME280;18669;53.356;-1.464;2023-02-17T06:24:27;100223.47;;;13.35;100.00
29839;BME280;18669;53.356;-1.464;2023-02-17T06:26:53;100228.88;;;13.32;100.00
29839;BME280;18669;53.356;-1.464;2023-02-17T06:29:19;100242.09;;;13.32;100.00
29839;BME280;18669;53.356;-1.464;2023-02-17T06:31:45;100222.88;;;13.28;100.00
29839;BME280;18669;53.356;-1.464;2023-02-17T06:34:10;100219.47;;;13.25;100.00
29839;BME280;18669;53.356;-1.464;2023-02-17T06:36:36;100216.97;;;13.22;100.00
29839;BME280;18669;53.356;-1.464;2023-02-17T06:39:02;100243.88;;;13.32;100.00
29839;BME280;18669;53.356;-1.464;2023-02-17T06:41:28;100222.97;;;13.25;100.00
29839;BME280;18669;53.356;-1.464;2023-02-17T06:43:53;100228.03;;;13.32;100.00
29839;BME280;18669;53.356;-1.464;2023-02-17T06:46:20;100227.22;;;13.30;100.00
29839;BME280;18669;53.356;-1.464;2023-02-17T06:48:45;100210.34;;;13.34;100.00
29839;BME280;18669;53.356;-1.464;2023-02-17T06:51:11;100210.75;;;13.23;100.00
29839;BME280;18669;53.356;-1.464;2023-02-17T06:53:37;100197.72;;;13.18;100.00
29839;BME280;18669;53.356;-1.464;2023-02-17T06:56:03;100186.13;;;13.22;100.00
29839;BME280;18669;53.356;-1.464;2023-02-17T06:58:29;100176.53;;;13.20;100.00
29839;BME280;18669;53.356;-1.464;2023-02-17T07:00:55;100167.00;;;13.16;100.00
29839;BME280;18669;53.356;-1.464;2023-02-17T07:03:21;100163.44;;;13.17;100.00
29839;BME280;18669;53.356;-1.464;2023-02-17T07:05:47;100156.44;;;13.16;100.00
29839;BME280;18669;53.356;-1.464;2023-02-17T07:08:13;100161.66;;;13.17;100.00
29839;BME280;18669;53.356;-1.464;2023-02-17T07:10:38;100164.94;;;13.24;100.00
29839;BME280;18669;53.356;-1.464;2023-02-17T07:13:04;100178.25;;;13.21;100.00
29839;BME280;18669;53.356;-1.464;2023-02-17T07:15:30;100185.13;;;13.25;100.00
29839;BME280;18669;53.356;-1.464;2023-02-17T07:17:56;100181.63;;;13.24;100.00
29839;BME280;18669;53.356;-1.464;2023-02-17T07:20:21;100185.19;;;13.23;100.00
29839;BME280;18669;53.356;-1.464;2023-02-17T07:22:47;100197.47;;;13.24;100.00
29839;BME280;18669;53.356;-1.464;2023-02-17T07:25:13;100189.31;;;13.31;100.00
29839;BME280;18669;53.356;-1.464;2023-02-17T07:27:38;100196.13;;;13.36;100.00
29839;BME280;18669;53.356;-1.464;2023-02-17T07:30:04;100175.63;;;13.43;100.00
29839;BME280;18669;53.356;-1.464;2023-02-17T07:32:30;100174.16;;;13.36;100.00
29839;BME280;18669;53.356;-1.464;2023-02-17T07:34:56;100162.59;;;13.38;100.00
29839;BME280;18669;53.356;-1.464;2023-02-17T07:37:22;100157.22;;;13.41;100.00
29839;BME280;18669;53.356;-1.464;2023-02-17T07:39:48;100170.63;;;13.35;100.00
29839;BME280;18669;53.356;-1.464;2023-02-17T07:42:14;100168.00;;;13.35;100.00
29839;BME280;18669;53.356;-1.464;2023-02-17T07:44:39;100177.75;;;13.33;100.00
29839;BME280;18669;53.356;-1.464;2023-02-17T07:47:05;100173.22;;;13.37;100.00
29839;BME280;18669;53.356;-1.464;2023-02-17T07:49:31;100174.28;;;13.33;100.00
29839;BME280;18669;53.356;-1.464;2023-02-17T07:51:57;100177.53;;;13.39;100.00
29839;BME280;18669;53.356;-1.464;2023-02-17T07:54:23;100173.13;;;13.40;100.00
29839;BME280;18669;53.356;-1.464;2023-02-17T07:56:49;100145.13;;;13.34;100.00
29839;BME280;18669;53.356;-1.464;2023-02-17T07:59:14;100158.22;;;13.37;100.00
29839;BME280;18669;53.356;-1.464;2023-02-17T08:01:40;100156.81;;;13.28;100.00
29839;BME280;18669;53.356;-1.464;2023-02-17T08:04:06;100170.84;;;13.31;100.00
29839;BME280;18669;53.356;-1.464;2023-02-17T08:06:32;100140.44;;;13.42;100.00
29839;BME280;18669;53.356;-1.464;2023-02-17T08:08:58;100150.94;;;13.44;100.00
29839;BME280;18669;53.356;-1.464;2023-02-17T08:11:42;100172.44;;;13.35;100.00
29839;BME280;18669;53.356;-1.464;2023-02-17T08:14:28;100152.22;;;13.34;100.00
29839;BME280;18669;53.356;-1.464;2023-02-17T08:16:54;100158.19;;;13.39;100.00
29839;BME280;18669;53.356;-1.464;2023-02-17T08:19:20;100140.38;;;13.44;100.00
29839;BME280;18669;53.356;-1.464;2023-02-17T08:21:46;100139.59;;;13.42;100.00
29839;BME280;18669;53.356;-1.464;2023-02-17T08:24:12;100113.19;;;13.42;100.00
29839;BME280;18669;53.356;-1.464;2023-02-17T08:26:38;100120.94;;;13.45;100.00
29839;BME280;18669;53.356;-1.464;2023-02-17T08:29:04;100139.69;;;13.39;100.00
29839;BME280;18669;53.356;-1.464;2023-02-17T08:31:31;100132.84;;;13.33;100.00
29839;BME280;18669;53.356;-1.464;2023-02-17T08:33:58;100101.72;;;13.41;100.00
29839;BME280;18669;53.356;-1.464;2023-02-17T08:36:24;100108.16;;;13.34;100.00
29839;BME280;18669;53.356;-1.464;2023-02-17T08:38:51;100109.53;;;13.45;100.00
29839;BME280;18669;53.356;-1.464;2023-02-17T08:41:24;100111.25;;;13.46;100.00
29839;BME280;18669;53.356;-1.464;2023-02-17T08:43:52;100088.28;;;13.48;100.00
29839;BME280;18669;53.356;-1.464;2023-02-17T08:46:17;100078.00;;;13.40;100.00
29839;BME280;18669;53.356;-1.464;2023-02-17T08:48:43;100070.91;;;13.42;100.00
29839;BME280;18669;53.356;-1.464;2023-02-17T08:51:16;100071.50;;;13.49;100.00
29839;BME280;18669;53.356;-1.464;2023-02-17T08:53:42;100061.84;;;13.48;100.00
29839;BME280;18669;53.356;-1.464;2023-02-17T08:56:08;100086.59;;;13.45;100.00
29839;BME280;18669;53.356;-1.464;2023-02-17T08:58:34;100077.88;;;13.43;100.00
29839;BME280;18669;53.356;-1.464;2023-02-17T09:01:00;100073.53;;;13.42;100.00
29839;BME280;18669;53.356;-1.464;2023-02-17T09:03:26;100056.59;;;13.46;100.00
29839;BME280;18669;53.356;-1.464;2023-02-17T09:05:53;100062.44;;;13.54;100.00
29839;BME280;18669;53.356;-1.464;2023-02-17T09:08:18;100073.22;;;13.70;100.00
29839;BME280;18669;53.356;-1.464;2023-02-17T09:10:44;100079.50;;;13.88;100.00
29839;BME280;18669;53.356;-1.464;2023-02-17T09:13:10;100073.47;;;14.06;100.00
29839;BME280;18669;53.356;-1.464;2023-02-17T09:15:36;100070.91;;;14.04;100.00
29839;BME280;18669;53.356;-1.464;2023-02-17T09:18:01;100072.66;;;14.24;100.00
29839;BME280;18669;53.356;-1.464;2023-02-17T09:20:28;100100.38;;;14.55;100.00
29839;BME280;18669;53.356;-1.464;2023-02-17T09:22:54;100089.63;;;14.79;100.00
29839;BME280;18669;53.356;-1.464;2023-02-17T09:25:20;100098.03;;;15.06;100.00
29839;BME280;18669;53.356;-1.464;2023-02-17T09:27:46;100085.63;;;15.07;100.00
29839;BME280;18669;53.356;-1.464;2023-02-17T09:30:12;100105.97;;;15.26;100.00
29839;BME280;18669;53.356;-1.464;2023-02-17T09:32:40;100074.94;;;14.91;100.00
29839;BME280;18669;53.356;-1.464;2023-02-17T09:35:05;100100.06;;;15.01;100.00
29839;BME280;18669;53.356;-1.464;2023-02-17T09:37:31;100105.91;;;14.89;100.00
29839;BME280;18669;53.356;-1.464;2023-02-17T09:39:57;100102.72;;;14.82;100.00
29839;BME280;18669;53.356;-1.464;2023-02-17T09:42:24;100125.75;;;14.80;100.00
29839;BME280;18669;53.356;-1.464;2023-02-17T09:44:51;100132.06;;;14.77;100.00
29839;BME280;18669;53.356;-1.464;2023-02-17T09:47:54;100147.31;;;14.72;100.00
29839;BME280;18669;53.356;-1.464;2023-02-17T09:52:52;100159.63;;;14.32;100.00
29839;BME280;18669;53.356;-1.464;2023-02-17T09:55:24;100150.50;;;14.39;100.00
29839;BME280;18669;53.356;-1.464;2023-02-17T09:57:54;100183.25;;;14.57;100.00
29839;BME280;18669;53.356;-1.464;2023-02-17T10:00:25;100164.97;;;14.51;100.00
29839;BME280;18669;53.356;-1.464;2023-02-17T10:02:56;100184.31;;;14.53;100.00
29839;BME280;18669;53.356;-1.464;2023-02-17T10:05:24;100195.22;;;14.45;100.00
29839;BME280;18669;53.356;-1.464;2023-02-17T10:07:53;100230.69;;;14.41;100.00
29839;BME280;18669;53.356;-1.464;2023-02-17T10:10:26;100239.88;;;14.32;100.00
29839;BME280;18669;53.356;-1.464;2023-02-17T10:12:54;100240.16;;;14.47;100.00
29839;BME280;18669;53.356;-1.464;2023-02-17T10:15:24;100243.69;;;14.47;100.00
29839;BME280;18669;53.356;-1.464;2023-02-17T10:20:32;100262.22;;;14.67;100.00
29839;BME280;18669;53.356;-1.464;2023-02-17T10:23:16;100277.75;;;14.76;100.00
29839;BME280;18669;53.356;-1.464;2023-02-17T10:28:08;100287.63;;;14.72;100.00
29839;BME280;18669;53.356;-1.464;2023-02-17T10:30:39;100303.44;;;14.74;100.00
29839;BME280;18669;53.356;-1.464;2023-02-17T10:35:40;100333.69;;;14.68;100.00
29839;BME280;18669;53.356;-1.464;2023-02-17T10:38:15;100344.22;;;14.70;100.00
29839;BME280;18669;53.356;-1.464;2023-02-17T10:40:43;100354.88;;;14.46;100.00
29839;BME280;18669;53.356;-1.464;2023-02-17T10:43:10;100363.84;;;14.43;100.00
29839;BME280;18669;53.356;-1.464;2023-02-17T10:45:43;100383.53;;;14.36;100.00
29839;BME280;18669;53.356;-1.464;2023-02-17T10:48:21;100385.25;;;14.37;100.00
29839;BME280;18669;53.356;-1.464;2023-02-17T10:50:48;100375.94;;;14.27;100.00
29839;BME280;18669;53.356;-1.464;2023-02-17T10:53:15;100404.09;;;14.29;100.00
29839;BME280;18669;53.356;-1.464;2023-02-17T10:56:31;100424.94;;;14.15;100.00
29839;BME280;18669;53.356;-1.464;2023-02-17T11:01:12;100410.03;;;14.12;100.00
29839;BME280;18669;53.356;-1.464;2023-02-17T11:03:38;100431.38;;;14.08;100.00
29839;BME280;18669;53.356;-1.464;2023-02-17T11:06:17;100452.28;;;14.14;100.00
29839;BME280;18669;53.356;-1.464;2023-02-17T11:08:45;100447.09;;;14.12;100.00
29839;BME280;18669;53.356;-1.464;2023-02-17T11:11:15;100460.47;;;14.08;100.00
29839;BME280;18669;53.356;-1.464;2023-02-17T11:13:42;100477.84;;;14.15;100.00
29839;BME280;18669;53.356;-1.464;2023-02-17T11:16:24;100496.97;;;14.22;100.00
29839;BME280;18669;53.356;-1.464;2023-02-17T11:18:50;100511.94;;;14.23;100.00
29839;BME280;18669;53.356;-1.464;2023-02-17T11:21:17;100524.88;;;14.30;100.00
29839;BME280;18669;53.356;-1.464;2023-02-17T11:24:16;100531.38;;;14.22;100.00
29839;BME280;18669;53.356;-1.464;2023-02-17T11:26:34;100564.50;;;14.08;100.00
29839;BME280;18669;53.356;-1.464;2023-02-17T11:31:32;100570.22;;;14.21;100.00
29839;BME280;18669;53.356;-1.464;2023-02-17T11:34:08;100593.22;;;14.19;100.00
29839;BME280;18669;53.356;-1.464;2023-02-17T11:36:34;100600.97;;;14.24;100.00
29839;BME280;18669;53.356;-1.464;2023-02-17T11:39:00;100605.41;;;14.23;100.00
29839;BME280;18669;53.356;-1.464;2023-02-17T11:41:38;100607.97;;;14.26;100.00
29839;BME280;18669;53.356;-1.464;2023-02-17T11:44:07;100598.91;;;14.32;100.00
29839;BME280;18669;53.356;-1.464;2023-02-17T11:46:44;100607.03;;;14.27;100.00
29839;BME280;18669;53.356;-1.464;2023-02-17T11:51:54;100617.84;;;14.21;100.00
29839;BME280;18669;53.356;-1.464;2023-02-17T11:57:12;100622.97;;;14.26;100.00
29839;BME280;18669;53.356;-1.464;2023-02-17T12:07:55;100649.41;;;14.00;100.00
29839;BME280;18669;53.356;-1.464;2023-02-17T12:25:40;100708.31;;;13.52;100.00
29839;BME280;18669;53.356;-1.464;2023-02-17T12:30:57;100714.53;;;13.21;100.00
29839;BME280;18669;53.356;-1.464;2023-02-17T12:33:38;100713.88;;;13.12;100.00
29839;BME280;18669;53.356;-1.464;2023-02-17T12:36:08;100688.94;;;13.21;100.00
29839;BME280;18669;53.356;-1.464;2023-02-17T12:38:46;100691.66;;;13.20;100.00
29839;BME280;18669;53.356;-1.464;2023-02-17T12:41:17;100701.41;;;13.18;100.00
29839;BME280;18669;53.356;-1.464;2023-02-17T12:43:56;100704.13;;;13.15;100.00
29839;BME280;18669;53.356;-1.464;2023-02-17T12:46:24;100713.28;;;13.03;100.00
29839;BME280;18669;53.356;-1.464;2023-02-17T12:48:53;100712.41;;;13.02;100.00
29839;BME280;18669;53.356;-1.464;2023-02-17T12:53:53;100701.44;;;13.16;100.00
29839;BME280;18669;53.356;-1.464;2023-02-17T12:58:50;100716.19;;;13.23;100.00
29839;BME280;18669;53.356;-1.464;2023-02-17T13:01:17;100716.25;;;13.22;100.00
29839;BME280;18669;53.356;-1.464;2023-02-17T13:03:44;100717.19;;;13.19;100.00
29839;BME280;18669;53.356;-1.464;2023-02-17T13:06:24;100724.19;;;13.22;100.00
29839;BME280;18669;53.356;-1.464;2023-02-17T13:09:35;100741.94;;;13.17;100.00
29839;BME280;18669;53.356;-1.464;2023-02-17T13:11:41;100741.13;;;13.13;100.00
29839;BME280;18669;53.356;-1.464;2023-02-17T13:14:26;100744.66;;;13.13;100.00
29839;BME280;18669;53.356;-1.464;2023-02-17T13:16:52;100752.91;;;13.03;100.00
29839;BME280;18669;53.356;-1.464;2023-02-17T13:19:27;100749.31;;;13.05;100.00
29839;BME280;18669;53.356;-1.464;2023-02-17T13:21:54;100769.44;;;13.09;100.00
29839;BME280;18669;53.356;-1.464;2023-02-17T13:26:55;100778.69;;;13.24;100.00
29839;BME280;18669;53.356;-1.464;2023-02-17T13:36:50;100763.91;;;13.17;100.00
29839;BME280;18669;53.356;-1.464;2023-02-17T13:41:55;100771.94;;;13.14;100.00
29839;BME280;18669;53.356;-1.464;2023-02-17T13:44:38;100778.13;;;13.13;100.00
29839;BME280;18669;53.356;-1.464;2023-02-17T13:47:05;100773.34;;;13.26;100.00
29839;BME280;18669;53.356;-1.464;2023-02-17T13:49:32;100785.75;;;13.24;100.00
29839;BME280;18669;53.356;-1.464;2023-02-17T13:52:10;100792.22;;;13.13;100.00
29839;BME280;18669;53.356;-1.464;2023-02-17T13:54:40;100806.75;;;12.97;100.00
29839;BME280;18669;53.356;-1.464;2023-02-17T13:57:21;100817.91;;;13.07;100.00
29839;BME280;18669;53.356;-1.464;2023-02-17T13:59:48;100839.78;;;13.12;100.00
29839;BME280;18669;53.356;-1.464;2023-02-17T14:02:17;100844.06;;;13.18;100.00
29839;BME280;18669;53.356;-1.464;2023-02-17T14:04:43;100845.34;;;13.03;99.59
29839;BME280;18669;53.356;-1.464;2023-02-17T14:07:09;100852.31;;;13.05;99.97